createdAt,value
2023-03-24T00:00:11.396Z,11.60
2023-03-24T00:02:26.255Z,11.60
2023-03-24T00:04:29.140Z,10.80
2023-03-24T00:06:33.702Z,11.50
2023-03-24T00:08:37.037Z,11.50
2023-03-24T00:10:39.888Z,11.50
2023-03-24T00:12:42.671Z,11.60
2023-03-24T00:14:46.352Z,11.60
2023-03-24T00:16:49.870Z,11.60
2023-03-24T00:18:54.180Z,11.60
2023-03-24T00:20:58.085Z,11.60
2023-03-24T00:23:00.896Z,11.60
2023-03-24T00:25:04.095Z,11.60
2023-03-24T00:27:07.193Z,11.60
2023-03-24T00:29:11.291Z,11.50
2023-03-24T00:31:14.733Z,11.60
2023-03-24T00:33:17.435Z,11.60
2023-03-24T00:35:20.331Z,11.60
2023-03-24T00:37:23.578Z,11.60
2023-03-24T00:39:26.421Z,11.60
2023-03-24T00:41:29.607Z,11.60
2023-03-24T00:43:32.676Z,11.60
2023-03-24T00:45:35.381Z,11.70
2023-03-24T00:47:38.294Z,11.70
2023-03-24T00:49:44.668Z,11.70
2023-03-24T00:51:47.381Z,11.60
2023-03-24T00:53:50.064Z,11.60
2023-03-24T00:55:53.350Z,11.70
2023-03-24T00:57:56.739Z,11.70
2023-03-24T01:00:03.169Z,11.70
2023-03-24T01:02:05.940Z,11.70
2023-03-24T01:04:09.912Z,11.90
2023-03-24T01:06:13.680Z,11.90
2023-03-24T01:08:19.375Z,11.80
2023-03-24T01:10:25.623Z,12.00
2023-03-24T01:12:29.491Z,12.00
2023-03-24T01:14:32.575Z,12.00
2023-03-24T01:16:35.457Z,12.10
2023-03-24T01:18:40.159Z,12.10
2023-03-24T01:20:45.571Z,12.10
2023-03-24T01:22:48.752Z,12.20
2023-03-24T01:24:52.525Z,12.20
2023-03-24T01:26:55.627Z,12.20
2023-03-24T01:28:58.530Z,12.10
2023-03-24T01:31:01.217Z,11.90
2023-03-24T01:33:04.110Z,11.90
2023-03-24T01:35:07.217Z,11.90
2023-03-24T01:37:09.964Z,11.90
2023-03-24T01:39:12.654Z,11.90
2023-03-24T01:41:15.331Z,12.00
2023-03-24T01:43:19.350Z,12.10
2023-03-24T01:45:42.446Z,12.00
2023-03-24T01:47:45.241Z,12.10
2023-03-24T01:49:50.168Z,12.00
2023-03-24T01:51:54.818Z,12.10
2023-03-24T01:53:59.395Z,12.20
2023-03-24T01:56:02.674Z,12.10
2023-03-24T01:58:07.263Z,12.10
2023-03-24T02:00:15.063Z,12.10
2023-03-24T02:02:21.625Z,12.00
2023-03-24T02:04:27.314Z,12.00
2023-03-24T02:06:32.597Z,12.00
2023-03-24T02:08:38.330Z,11.90
2023-03-24T02:10:41.110Z,12.00
2023-03-24T02:12:44.929Z,11.90
2023-03-24T02:14:47.676Z,11.90
2023-03-24T02:16:54.494Z,12.00
2023-03-24T02:19:01.919Z,11.90
2023-03-24T02:21:17.730Z,12.00
2023-03-24T02:23:37.657Z,12.00
2023-03-24T02:26:11.529Z,12.10
2023-03-24T02:28:19.551Z,12.10
2023-03-24T02:30:41.316Z,12.10
2023-03-24T02:33:02.751Z,12.00
2023-03-24T02:35:11.886Z,12.10
2023-03-24T02:37:45.987Z,12.10
2023-03-24T02:40:14.949Z,12.20
2023-03-24T02:42:21.946Z,12.20
2023-03-24T02:44:26.922Z,12.20
2023-03-24T02:46:31.816Z,12.20
2023-03-24T02:48:36.864Z,12.10
2023-03-24T02:50:41.985Z,12.20
2023-03-24T02:52:46.076Z,12.10
2023-03-24T02:54:50.803Z,12.10
2023-03-24T02:56:55.287Z,12.10
2023-03-24T02:59:01.810Z,12.10
2023-03-24T03:01:08.199Z,12.10
2023-03-24T03:03:14.585Z,12.10
2023-03-24T03:05:19.351Z,12.10
2023-03-24T03:07:24.580Z,12.10
2023-03-24T03:09:27.947Z,12.10
2023-03-24T03:11:30.831Z,12.10
2023-03-24T03:13:35.319Z,12.10
2023-03-24T03:15:39.759Z,12.20
2023-03-24T03:17:46.050Z,12.20
2023-03-24T03:19:52.092Z,12.30
2023-03-24T03:21:56.153Z,12.30
2023-03-24T03:24:01.604Z,12.30
2023-03-24T03:26:06.951Z,12.40
2023-03-24T03:28:10.446Z,12.50
2023-03-24T03:30:15.384Z,12.60
2023-03-24T03:32:21.114Z,12.60
2023-03-24T03:34:25.648Z,12.60
2023-03-24T03:36:30.809Z,12.50
2023-03-24T03:38:35.297Z,12.60
2023-03-24T03:40:39.795Z,12.60
2023-03-24T03:42:44.929Z,12.60
2023-03-24T03:44:47.747Z,12.60
2023-03-24T03:46:50.945Z,12.60
2023-03-24T03:48:55.529Z,12.70
2023-03-24T03:51:10.047Z,12.80
2023-03-24T03:53:02.990Z,12.90
2023-03-24T03:55:06.943Z,12.90
2023-03-24T03:57:10.767Z,13.00
2023-03-24T03:59:24.585Z,13.00
2023-03-24T04:01:29.250Z,13.00
2023-03-24T04:03:39.246Z,12.90
2023-03-24T04:05:45.921Z,12.80
2023-03-24T04:08:01.920Z,12.90
2023-03-24T04:10:09.149Z,12.80
2023-03-24T04:12:26.135Z,12.70
2023-03-24T04:14:36.850Z,12.80
2023-03-24T04:16:46.190Z,12.80
2023-03-24T04:18:54.730Z,12.80
2023-03-24T04:21:01.847Z,12.90
2023-03-24T04:23:08.823Z,12.80
2023-03-24T04:25:14.977Z,12.80
2023-03-24T04:27:21.409Z,12.70
2023-03-24T04:29:26.337Z,12.60
2023-03-24T04:31:33.144Z,12.60
2023-03-24T04:33:38.594Z,12.60
2023-03-24T04:35:43.733Z,12.50
2023-03-24T04:37:49.080Z,12.50
2023-03-24T04:39:56.580Z,12.50
2023-03-24T04:42:01.195Z,12.40
2023-03-24T04:44:04.420Z,12.40
2023-03-24T04:46:08.787Z,12.40
2023-03-24T04:48:14.152Z,12.30
2023-03-24T04:50:29.556Z,12.30
2023-03-24T04:52:32.563Z,12.30
2023-03-24T04:54:36.052Z,12.30
2023-03-24T04:56:41.280Z,12.30
2023-03-24T04:58:45.855Z,12.30
2023-03-24T05:00:49.383Z,12.30
2023-03-24T05:02:53.945Z,12.20
2023-03-24T05:04:58.417Z,12.10
2023-03-24T05:07:03.652Z,12.10
2023-03-24T05:09:06.258Z,12.10
2023-03-24T05:11:09.262Z,12.00
2023-03-24T05:13:14.309Z,11.90
2023-03-24T05:15:18.698Z,11.90
2023-03-24T05:17:22.815Z,11.90
2023-03-24T05:19:25.446Z,11.90
2023-03-24T05:21:28.052Z,11.80
2023-03-24T05:23:30.750Z,11.70
2023-03-24T05:25:33.354Z,11.70
2023-03-24T05:27:36.478Z,11.70
2023-03-24T05:29:41.007Z,11.60
2023-03-24T05:31:44.637Z,11.60
2023-03-24T05:33:49.206Z,11.60
2023-03-24T05:35:53.706Z,11.60
2023-03-24T05:37:56.418Z,11.60
2023-03-24T05:39:59.108Z,11.60
2023-03-24T05:42:05.216Z,11.60
2023-03-24T05:44:07.917Z,11.70
2023-03-24T05:46:10.967Z,11.70
2023-03-24T05:48:13.653Z,11.70
2023-03-24T05:50:18.289Z,11.70
2023-03-24T05:52:21.988Z,11.70
2023-03-24T05:54:25.521Z,11.70
2023-03-24T05:56:30.852Z,11.70
2023-03-24T05:58:34.822Z,11.70
2023-03-24T06:00:37.777Z,11.70
2023-03-24T06:02:42.293Z,11.60
2023-03-24T06:04:48.546Z,11.60
2023-03-24T06:06:54.183Z,11.60
2023-03-24T06:09:00.120Z,11.60
2023-03-24T06:11:03.312Z,11.60
2023-03-24T06:13:08.050Z,11.60
2023-03-24T06:15:14.116Z,11.60
2023-03-24T06:17:17.458Z,11.60
2023-03-24T06:19:22.099Z,11.60
2023-03-24T06:21:28.680Z,11.60
2023-03-24T06:23:33.113Z,11.70
2023-03-24T06:25:37.557Z,11.70
2023-03-24T06:27:44.885Z,11.80
2023-03-24T06:29:49.284Z,11.80
2023-03-24T06:31:51.904Z,11.80
2023-03-24T06:33:54.494Z,11.70
2023-03-24T06:35:57.350Z,11.60
2023-03-24T06:38:00.621Z,11.60
2023-03-24T06:40:06.895Z,11.50
2023-03-24T06:42:09.718Z,11.40
2023-03-24T06:44:12.403Z,11.30
2023-03-24T06:46:16.575Z,11.30
2023-03-24T06:48:21.095Z,11.20
2023-03-24T06:50:26.307Z,11.10
2023-03-24T06:52:29.130Z,11.10
2023-03-24T06:54:31.870Z,11.10
2023-03-24T06:56:35.091Z,11.00
2023-03-24T06:58:38.099Z,11.00
2023-03-24T07:00:42.661Z,11.00
2023-03-24T07:02:47.660Z,11.10
2023-03-24T07:04:52.191Z,11.10
2023-03-24T07:07:12.544Z,11.10
2023-03-24T07:09:01.844Z,11.00
2023-03-24T07:11:08.095Z,11.10
2023-03-24T07:13:10.989Z,11.10
2023-03-24T07:15:14.225Z,11.20
2023-03-24T07:17:17.528Z,11.20
2023-03-24T07:19:22.598Z,11.30
2023-03-24T07:21:27.016Z,11.30
2023-03-24T07:23:30.652Z,11.20
2023-03-24T07:25:35.205Z,11.10
2023-03-24T07:27:42.348Z,11.10
2023-03-24T07:29:44.446Z,11.00
2023-03-24T07:31:50.514Z,11.10
2023-03-24T07:33:53.239Z,11.10
2023-03-24T07:35:56.830Z,11.20
2023-03-24T07:37:59.984Z,11.30
2023-03-24T07:40:05.306Z,11.40
2023-03-24T07:42:08.484Z,11.40
2023-03-24T07:44:14.127Z,11.40
2023-03-24T07:46:19.224Z,11.40
2023-03-24T07:48:22.491Z,11.40
2023-03-24T07:50:28.662Z,10.70
2023-03-24T07:52:31.542Z,11.40
2023-03-24T07:54:34.385Z,11.50
2023-03-24T07:56:37.155Z,11.70
2023-03-24T07:58:40.728Z,11.80
2023-03-24T08:00:45.222Z,11.80
2023-03-24T08:02:51.719Z,11.90
2023-03-24T08:04:57.205Z,11.90
2023-03-24T08:07:01.652Z,11.90
2023-03-24T08:09:06.088Z,12.00
2023-03-24T08:11:09.126Z,12.00
2023-03-24T08:13:11.960Z,12.20
2023-03-24T08:15:14.812Z,12.30
2023-03-24T08:17:17.374Z,12.30
2023-03-24T08:19:20.070Z,12.20
2023-03-24T08:21:22.728Z,12.10
2023-03-24T08:23:25.548Z,12.30
2023-03-24T08:25:28.306Z,12.20
2023-03-24T08:27:30.944Z,12.20
2023-03-24T08:29:34.442Z,12.10
2023-03-24T08:31:37.241Z,12.20
2023-03-24T08:33:39.827Z,12.40
2023-03-24T08:54:11.000Z,12.80
2023-03-24T08:56:13.850Z,12.70
2023-03-24T08:58:17.975Z,12.90
2023-03-24T09:00:22.149Z,13.00
2023-03-24T09:02:24.848Z,13.10
2023-03-24T09:04:27.386Z,13.50
2023-03-24T09:06:30.541Z,13.70
2023-03-24T09:08:33.031Z,13.70
2023-03-24T09:10:35.709Z,13.40
2023-03-24T09:12:38.606Z,13.30
2023-03-24T09:14:41.092Z,13.40
2023-03-24T09:16:44.648Z,13.40
2023-03-24T09:18:47.263Z,13.50
2023-03-24T09:20:50.479Z,13.50
2023-03-24T09:22:53.221Z,13.40
2023-03-24T09:24:55.850Z,13.20
2023-03-24T09:26:58.788Z,13.10
2023-03-24T09:29:01.593Z,13.20
2023-03-24T09:31:05.550Z,13.50
2023-03-24T09:33:09.137Z,13.70
2023-03-24T09:35:11.812Z,13.90
2023-03-24T09:37:14.406Z,13.80
2023-03-24T09:39:18.416Z,13.60
2023-03-24T09:41:23.323Z,13.70
2023-03-24T09:43:28.598Z,13.60
2023-03-24T09:45:32.936Z,13.50
2023-03-24T09:47:38.591Z,13.50
2023-03-24T09:49:42.264Z,13.50
2023-03-24T09:51:45.573Z,13.40
2023-03-24T09:53:50.679Z,13.60
2023-03-24T09:55:53.346Z,13.70
2023-03-24T09:57:57.480Z,13.70
2023-03-24T10:00:00.149Z,13.70
2023-03-24T10:02:04.518Z,13.80
2023-03-24T10:04:09.542Z,14.00
2023-03-24T10:06:14.452Z,14.10
2023-03-24T10:08:18.743Z,14.00
2023-03-24T10:10:24.658Z,13.90
2023-03-24T10:12:32.833Z,14.00
2023-03-24T10:14:41.431Z,14.10
2023-03-24T10:16:46.341Z,14.30
2023-03-24T10:18:50.864Z,14.20
2023-03-24T10:20:55.165Z,14.40
2023-03-24T10:23:01.400Z,14.40
2023-03-24T10:25:06.613Z,14.70
2023-03-24T10:27:11.446Z,15.10
2023-03-24T10:29:17.744Z,15.50
2023-03-24T10:31:22.111Z,15.90
2023-03-24T10:33:25.006Z,15.70
2023-03-24T10:35:28.121Z,15.70
2023-03-24T10:37:30.869Z,15.60
2023-03-24T10:39:44.292Z,15.20
2023-03-24T10:41:37.940Z,15.00
2023-03-24T10:43:41.647Z,15.00
2023-03-24T10:45:45.287Z,14.80
2023-03-24T10:47:48.973Z,14.50
2023-03-24T10:49:57.244Z,14.40
2023-03-24T10:52:03.042Z,14.30
2023-03-24T10:54:16.635Z,14.20
2023-03-24T10:56:21.154Z,14.20
2023-03-24T10:58:28.233Z,14.20
2023-03-24T11:00:32.065Z,14.20
2023-03-24T11:02:36.982Z,14.30
2023-03-24T11:04:40.408Z,14.40
2023-03-24T11:06:54.370Z,14.40
2023-03-24T11:09:10.994Z,14.40
2023-03-24T11:11:15.062Z,14.20
2023-03-24T11:13:19.055Z,14.30
2023-03-24T11:15:23.330Z,14.30
2023-03-24T11:17:26.868Z,14.20
2023-03-24T11:19:31.754Z,14.20
2023-03-24T11:21:35.490Z,14.30
2023-03-24T11:23:39.020Z,14.20
2023-03-24T11:25:43.409Z,14.20
2023-03-24T11:27:46.041Z,14.10
2023-03-24T11:29:51.003Z,13.90
2023-03-24T11:31:55.743Z,14.00
2023-03-24T11:34:00.030Z,13.90
2023-03-24T11:36:06.017Z,14.00
2023-03-24T11:38:07.830Z,14.00
2023-03-24T11:40:18.424Z,14.30
2023-03-24T11:42:22.987Z,14.90
2023-03-24T11:44:25.647Z,15.40
2023-03-24T11:46:28.247Z,15.50
2023-03-24T11:48:32.644Z,15.50
2023-03-24T11:50:36.929Z,15.30
2023-03-24T11:52:41.424Z,15.50
2023-03-24T11:54:44.097Z,15.70
2023-03-24T11:56:47.801Z,15.90
2023-03-24T11:58:52.202Z,15.90
2023-03-24T12:00:57.234Z,16.00
2023-03-24T12:03:13.663Z,15.80
2023-03-24T12:05:23.967Z,16.00
2023-03-24T12:07:40.084Z,16.40
2023-03-24T12:09:44.400Z,16.30
2023-03-24T12:11:56.826Z,16.40
2023-03-24T12:14:01.157Z,16.40
2023-03-24T12:16:08.393Z,16.60
2023-03-24T12:18:19.063Z,16.70
2023-03-24T12:20:25.763Z,16.70
2023-03-24T12:22:38.912Z,16.50
2023-03-24T12:24:48.622Z,16.50
2023-03-24T12:27:00.925Z,16.70
2023-03-24T12:29:34.405Z,16.60
2023-03-24T12:31:57.085Z,16.40
2023-03-24T12:34:02.988Z,16.60
2023-03-24T12:36:17.160Z,16.50
2023-03-24T12:38:25.403Z,16.40
2023-03-24T12:40:53.632Z,16.00
2023-03-24T12:42:58.526Z,16.00
2023-03-24T12:45:20.269Z,16.00
2023-03-24T12:47:27.195Z,15.80
2023-03-24T12:49:37.692Z,15.80
2023-03-24T12:51:44.124Z,16.00
2023-03-24T12:53:53.050Z,16.10
2023-03-24T12:58:17.390Z,16.30
2023-03-24T13:00:22.909Z,16.30
2023-03-24T13:02:27.717Z,16.10
2023-03-24T13:04:32.270Z,16.10
2023-03-24T13:06:36.869Z,16.20
2023-03-24T13:08:41.263Z,16.20
2023-03-24T13:10:46.356Z,16.00
2023-03-24T13:12:50.773Z,15.90
2023-03-24T13:14:55.821Z,16.00
2023-03-24T13:17:03.046Z,15.80
2023-03-24T13:19:07.437Z,15.90
2023-03-24T13:21:11.878Z,16.10
2023-03-24T13:23:20.945Z,16.30
2023-03-24T13:25:25.784Z,16.30
2023-03-24T13:27:40.712Z,16.40
2023-03-24T13:30:00.053Z,15.70
2023-03-24T13:32:05.157Z,16.10
2023-03-24T13:34:10.207Z,15.90
2023-03-24T13:36:17.097Z,15.80
2023-03-24T13:38:21.322Z,15.70
2023-03-24T13:40:25.593Z,15.70
2023-03-24T13:42:31.520Z,15.60
2023-03-24T13:44:38.619Z,15.70
2023-03-24T13:46:41.537Z,15.70
2023-03-24T13:48:44.963Z,15.70
2023-03-24T13:50:51.755Z,15.40
2023-03-24T13:52:54.857Z,15.20
2023-03-24T13:54:58.293Z,15.10
2023-03-24T13:57:03.482Z,15.10
2023-03-24T13:59:08.168Z,15.00
2023-03-24T14:01:31.065Z,14.90
2023-03-24T14:03:36.468Z,14.70
2023-03-24T14:05:46.226Z,14.10
2023-03-24T14:07:49.884Z,13.70
2023-03-24T14:09:57.852Z,13.60
2023-03-24T14:12:28.428Z,13.70
2023-03-24T14:14:32.857Z,13.80
2023-03-24T14:16:38.739Z,13.90
2023-03-24T14:18:42.414Z,14.10
2023-03-24T14:20:46.786Z,14.30
2023-03-24T14:22:51.223Z,14.30
2023-03-24T14:24:57.736Z,14.30
2023-03-24T14:27:00.230Z,14.40
2023-03-24T14:29:03.175Z,14.40
2023-03-24T14:31:12.036Z,14.40
2023-03-24T14:33:23.352Z,14.30
2023-03-24T14:35:28.312Z,14.30
2023-03-24T14:37:31.000Z,14.30
2023-03-24T14:39:36.033Z,14.30
2023-03-24T14:41:40.254Z,14.00
2023-03-24T14:43:58.802Z,13.30
2023-03-24T14:46:01.601Z,13.30
2023-03-24T14:48:05.983Z,13.50
2023-03-24T14:50:12.917Z,13.70
2023-03-24T14:52:17.128Z,13.90
2023-03-24T14:54:21.416Z,14.10
2023-03-24T14:56:25.024Z,14.00
2023-03-24T14:58:29.340Z,13.80
2023-03-24T15:00:33.833Z,13.70
2023-03-24T15:02:37.621Z,13.60
2023-03-24T15:04:40.377Z,13.40
2023-03-24T15:06:46.314Z,13.40
2023-03-24T15:08:50.753Z,13.20
2023-03-24T15:10:54.246Z,13.00
2023-03-24T15:12:57.311Z,12.60
2023-03-24T15:15:00.789Z,12.40
2023-03-24T15:17:05.447Z,12.10
2023-03-24T15:19:09.049Z,12.00
2023-03-24T15:21:15.644Z,11.80
2023-03-24T15:23:19.736Z,11.80
2023-03-24T15:25:26.718Z,11.80
2023-03-24T15:27:31.075Z,11.80
2023-03-24T15:29:33.902Z,11.70
2023-03-24T15:31:38.027Z,11.60
2023-03-24T15:33:41.288Z,11.60
2023-03-24T15:35:44.499Z,11.50
2023-03-24T15:37:51.719Z,11.50
2023-03-24T15:40:01.766Z,11.50
2023-03-24T15:41:58.983Z,11.50
2023-03-24T15:44:01.575Z,11.40
2023-03-24T15:46:12.288Z,11.40
2023-03-24T15:48:13.183Z,11.60
2023-03-24T15:50:28.949Z,11.80
2023-03-24T15:52:34.027Z,12.00
2023-03-24T15:54:39.181Z,12.10
2023-03-24T15:56:41.862Z,12.20
2023-03-24T15:58:48.913Z,12.30
2023-03-24T16:00:53.104Z,12.50
2023-03-24T16:02:57.041Z,12.50
2023-03-24T16:05:10.344Z,12.60
2023-03-24T16:07:05.712Z,12.70
2023-03-24T16:09:10.191Z,12.50
2023-03-24T16:11:13.066Z,12.30
2023-03-24T16:13:17.304Z,12.10
2023-03-24T16:15:19.823Z,11.90
2023-03-24T16:17:22.318Z,11.90
2023-03-24T16:19:25.070Z,11.80
2023-03-24T16:21:28.338Z,11.70
2023-03-24T16:23:31.930Z,11.70
2023-03-24T16:25:34.435Z,11.70
2023-03-24T16:27:37.280Z,11.60
2023-03-24T16:29:40.031Z,11.50
2023-03-24T16:31:43.506Z,11.60
2023-03-24T16:33:47.472Z,11.60
2023-03-24T16:35:52.214Z,11.50
2023-03-24T16:37:55.680Z,11.50
2023-03-24T16:39:59.424Z,11.50
2023-03-24T16:42:05.456Z,11.50
2023-03-24T16:44:08.367Z,11.60
2023-03-24T16:46:15.409Z,11.60
2023-03-24T16:48:19.908Z,11.50
2023-03-24T16:50:30.685Z,11.10
2023-03-24T16:52:34.875Z,10.80
2023-03-24T16:54:42.117Z,10.50
2023-03-24T16:56:50.807Z,10.10
2023-03-24T16:58:59.717Z,9.70
2023-03-24T17:01:03.677Z,9.50
2023-03-24T17:03:07.954Z,9.30
2023-03-24T17:05:15.897Z,9.20
2023-03-24T17:07:18.408Z,9.10
2023-03-24T17:09:21.316Z,9.10
2023-03-24T17:11:26.125Z,9.00
2023-03-24T17:13:28.663Z,9.10
2023-03-24T17:15:32.842Z,9.10
2023-03-24T17:17:35.385Z,9.10
2023-03-24T17:19:37.908Z,9.10
2023-03-24T17:21:42.151Z,9.20
2023-03-24T17:23:48.437Z,9.20
2023-03-24T17:25:50.968Z,9.30
2023-03-24T17:27:57.270Z,9.30
2023-03-24T17:30:01.807Z,9.40
2023-03-24T17:32:05.927Z,9.40
2023-03-24T17:36:17.406Z,9.50
2023-03-24T17:38:20.137Z,9.50
2023-03-24T17:40:23.137Z,9.60
2023-03-24T17:42:26.409Z,9.60
2023-03-24T17:44:28.918Z,9.70
2023-03-24T17:46:31.479Z,9.70
2023-03-24T17:48:34.036Z,9.60
2023-03-24T17:50:36.631Z,9.70
2023-03-24T17:52:39.813Z,9.60
2023-03-24T17:54:44.050Z,9.60
2023-03-24T17:56:46.747Z,9.70
2023-03-24T17:58:49.459Z,9.60
2023-03-24T18:00:52.821Z,9.50
2023-03-24T18:02:55.674Z,9.60
2023-03-24T18:04:58.178Z,9.60
2023-03-24T18:07:02.087Z,9.50
2023-03-24T18:09:04.704Z,9.50
2023-03-24T18:11:08.154Z,9.50
2023-03-24T18:13:11.060Z,9.40
2023-03-24T18:15:13.535Z,9.50
2023-03-24T18:17:16.098Z,9.50
2023-03-24T18:19:18.801Z,9.40
2023-03-24T18:21:21.972Z,9.30
2023-03-24T18:23:24.710Z,9.30
2023-03-24T18:25:27.348Z,9.30
2023-03-24T18:27:29.850Z,9.30
2023-03-24T18:31:49.449Z,9.20
2023-03-24T18:33:52.335Z,9.20
2023-03-24T18:35:55.721Z,9.20
2023-03-24T18:37:58.252Z,9.20
2023-03-24T18:40:01.057Z,9.30
2023-03-24T18:42:03.700Z,9.30
2023-03-24T18:44:07.681Z,9.50
2023-03-24T18:46:12.408Z,9.40
2023-03-24T18:48:16.317Z,9.40
2023-03-24T18:50:22.050Z,9.30
2023-03-24T18:52:25.234Z,9.40
2023-03-24T18:54:29.709Z,9.40
2023-03-24T18:56:35.983Z,9.40
2023-03-24T18:58:39.158Z,9.40
2023-03-24T19:00:42.204Z,9.40
2023-03-24T19:02:44.832Z,9.50
2023-03-24T19:04:47.649Z,9.40
2023-03-24T19:06:50.291Z,9.40
2023-03-24T19:08:53.109Z,9.40
2023-03-24T19:10:55.939Z,9.30
2023-03-24T19:12:58.478Z,9.30
2023-03-24T19:15:01.445Z,9.20
2023-03-24T19:17:05.086Z,9.30
2023-03-24T19:19:09.234Z,9.30
2023-03-24T19:21:12.534Z,9.20
2023-03-24T19:23:15.467Z,9.30
2023-03-24T19:25:18.048Z,9.30
2023-03-24T19:27:20.668Z,9.40
2023-03-24T19:29:23.252Z,9.40
2023-03-24T19:31:25.792Z,9.40
2023-03-24T19:33:28.886Z,9.40
2023-03-24T19:35:31.417Z,9.30
2023-03-24T19:37:33.990Z,9.30
2023-03-24T19:39:37.668Z,9.30
2023-03-24T19:41:40.444Z,9.30
2023-03-24T19:43:43.091Z,9.50
2023-03-24T19:45:49.454Z,9.50
2023-03-24T19:47:52.173Z,9.60
2023-03-24T19:49:56.208Z,9.60
2023-03-24T19:51:58.742Z,9.60
2023-03-24T19:54:01.220Z,9.70
2023-03-24T19:56:03.934Z,9.80
2023-03-24T19:58:06.969Z,9.90
2023-03-24T20:00:13.241Z,9.90
2023-03-24T20:02:16.271Z,9.90
2023-03-24T20:04:18.748Z,9.90
2023-03-24T20:06:21.349Z,9.90
2023-03-24T20:08:25.328Z,9.90
2023-03-24T20:10:28.223Z,9.90
2023-03-24T20:12:31.644Z,9.90
2023-03-24T20:14:34.247Z,9.90
2023-03-24T20:16:36.769Z,9.90
2023-03-24T20:18:39.852Z,10.00
2023-03-24T20:20:42.370Z,10.10
2023-03-24T20:22:47.285Z,10.20
2023-03-24T20:24:50.193Z,10.20
2023-03-24T20:26:52.809Z,10.30
2023-03-24T20:28:56.278Z,10.30
2023-03-24T20:30:59.347Z,10.30
2023-03-24T20:33:02.298Z,10.30
2023-03-24T20:35:05.190Z,10.30
2023-03-24T20:37:07.873Z,10.20
2023-03-24T20:39:10.448Z,10.30
2023-03-24T20:41:13.039Z,10.30
2023-03-24T20:43:15.573Z,10.30
2023-03-24T20:45:18.148Z,10.50
2023-03-24T20:47:20.842Z,10.50
2023-03-24T20:49:23.713Z,10.50
2023-03-24T20:51:27.819Z,10.40
2023-03-24T20:53:32.152Z,10.50
2023-03-24T20:55:35.235Z,10.40
2023-03-24T20:57:37.878Z,10.40
2023-03-24T20:59:41.502Z,10.40
2023-03-24T21:01:46.248Z,10.40
2023-03-24T21:03:50.288Z,10.40
2023-03-24T21:05:52.884Z,10.50
2023-03-24T21:07:55.395Z,10.50
2023-03-24T21:10:15.290Z,10.40
2023-03-24T21:12:21.797Z,10.40
2023-03-24T21:14:24.483Z,10.40
2023-03-24T21:16:27.219Z,10.40
2023-03-24T21:18:31.818Z,10.30
2023-03-24T21:20:34.328Z,10.30
2023-03-24T21:22:37.256Z,10.40
2023-03-24T21:24:39.725Z,10.40
2023-03-24T21:26:42.236Z,10.40
2023-03-24T21:28:44.737Z,10.40
2023-03-24T21:30:47.507Z,10.40
2023-03-24T21:32:51.201Z,10.40
2023-03-24T21:34:54.097Z,10.40
2023-03-24T21:36:56.578Z,10.40
2023-03-24T21:38:59.071Z,10.30
2023-03-24T21:41:01.921Z,10.40
2023-03-24T21:43:04.541Z,10.40
2023-03-24T21:45:08.186Z,10.40
2023-03-24T21:47:10.677Z,10.40
2023-03-24T21:49:13.326Z,10.30
2023-03-24T21:51:17.661Z,10.30
2023-03-24T21:53:20.431Z,10.30
2023-03-24T21:55:24.845Z,10.30
2023-03-24T21:57:27.755Z,10.20
2023-03-24T22:01:47.115Z,10.30
2023-03-24T22:03:50.779Z,10.30
2023-03-24T22:05:56.370Z,10.30
2023-03-24T22:08:01.733Z,10.20
2023-03-24T22:10:05.491Z,10.30
2023-03-24T22:12:08.133Z,10.30
2023-03-24T22:14:11.916Z,10.20
2023-03-24T22:16:14.813Z,10.20
2023-03-24T22:18:17.284Z,10.20
2023-03-24T22:20:20.146Z,10.10
2023-03-24T22:22:25.412Z,10.10
2023-03-24T22:24:29.068Z,10.10
2023-03-24T22:26:31.581Z,10.10
2023-03-24T22:28:34.605Z,10.10
2023-03-24T22:30:37.058Z,10.20
2023-03-24T22:32:40.043Z,10.20
2023-03-24T22:34:42.976Z,10.20
2023-03-24T22:36:45.557Z,10.20
2023-03-24T22:38:48.144Z,10.20
2023-03-24T22:40:50.948Z,10.10
2023-03-24T22:42:53.437Z,10.10
2023-03-24T22:44:55.985Z,10.10
2023-03-24T22:46:58.635Z,10.10
2023-03-24T22:49:01.237Z,10.10
2023-03-24T22:51:04.386Z,10.00
2023-03-24T22:53:06.857Z,10.00
2023-03-24T22:55:09.863Z,10.00
2023-03-24T22:57:12.388Z,10.00
2023-03-24T22:59:14.840Z,10.00
2023-03-24T23:01:17.354Z,10.10
2023-03-24T23:03:20.227Z,10.00
2023-03-24T23:05:22.924Z,10.00
2023-03-24T23:07:27.541Z,10.00
2023-03-24T23:09:30.123Z,10.00
2023-03-24T23:11:32.989Z,10.00
2023-03-24T23:13:35.483Z,10.00
2023-03-24T23:15:38.444Z,10.10
2023-03-24T23:17:41.816Z,10.10
2023-03-24T23:19:44.311Z,10.10
2023-03-24T23:21:46.803Z,10.10
2023-03-24T23:23:49.301Z,10.10
2023-03-24T23:25:51.905Z,10.10
2023-03-24T23:27:54.519Z,10.10
2023-03-24T23:29:57.016Z,10.10
2023-03-24T23:31:59.523Z,10.10
2023-03-24T23:34:03.870Z,10.10
2023-03-24T23:36:07.503Z,10.10
2023-03-24T23:38:10.245Z,10.10
2023-03-24T23:40:14.133Z,10.10
2023-03-24T23:42:16.664Z,10.20
2023-03-24T23:44:19.326Z,10.10
2023-03-24T23:46:23.277Z,10.10
2023-03-24T23:48:25.879Z,10.00
2023-03-24T23:50:28.819Z,10.00
2023-03-24T23:52:31.384Z,10.00
2023-03-24T23:56:50.837Z,9.90
2023-03-24T23:58:53.516Z,9.90
